Bookmark and Share
Track history (hours):
 

Star Princess

Operator: Princess Cruises

Last reported at 2014-Apr-21 17:05 UTC. Time now 2014-Apr-24 00:39 UTC.
Position N 28°28' W 131°40'.

Length 289.6 m; beam 36 m; draft 8.4 m.

Type: Ship. MMSI: 310361000.

NotesDate/timePositionNaut miles runAvg speedWind from/ knotsBaromVisibWave heightAir tempDewpointWater temp
2014-Apr-21 17:05N 28°28' W 131°40'17520.0
2014-Apr-21 08:21N 29°34' W 128°35'2015.1
2014-Apr-21 07:00N 29°36' W 128°12'1936.4 150 / 61024.210.8 0.516.011.719.0
2014-Apr-21 06:29N 29°48' W 127°55'6820.2
2014-Apr-21 03:05N 30°14' W 126°42'3120.5
2014-Apr-21 01:33N 30°25' W 126°09'2120.6
2014-Apr-21 00:33N 30°33' W 125°46'2120.7
2014-Apr-20 23:33N 30°41' W 125°24'30420.2
2014-Apr-20 08:30N 32°35' W 119°53'2018.6
2014-Apr-20 07:26N 32°42' W 119°32'1415.7
2014-Apr-20 06:31N 32°48' W 119°16'1817.8
2014-Apr-20 05:30N 33°01' W 119°00'2020.4
2014-Apr-20 04:32N 33°18' W 118°49'1717.4
2014-Apr-20 03:33N 33°31' W 118°36'1713.9
2014-Apr-20 02:21N 33°37' W 118°17'7 8.3
2014-Apr-20 01:28N 33°44' W 118°17'24 1.6
2014-Apr-19 10:17N 33°23' W 118°04'912.1
2014-Apr-19 09:33N 33°14' W 118°00'1212.1
2014-Apr-19 08:33N 33°03' W 117°54'1211.8
2014-Apr-19 07:33N 32°53' W 117°49'1212.0
2014-Apr-19 06:34N 32°42' W 117°43'1212.3
2014-Apr-19 05:33N 32°31' W 117°36'1211.9
2014-Apr-19 04:33N 32°19' W 117°32'2616.5
2014-Apr-19 03:00N 32°00' W 117°12'81 4.2 320 / 111012.910.8 0.516.513.218.0
2014-Apr-18 07:25N 31°08' W 118°26'3715.4
2014-Apr-18 05:00N 30°54' W 119°06'21217.7 300 / 151013.110.8 1.015.012.816.0
2014-Apr-17 17:00N 30°06' W 123°06'41617.3 340 / 241014.910.8 1.015.512.118.0
2014-Apr-16 17:00N 28°24' W 130°48'   030 / 191022.410.8 1.016.511.419.0
2014-Apr-13 18:00N 23°00' W 154°42'   060 / 301023.610.8 1.022.017.523.0

Dump ship's entire track history

sailing weather and tide predictions

Star Princess — ZCDD6 — position and weather